Terminal Aerodrome Forecast
Issued by NWS Sioux Falls, SD

Home | Current Version | Previous Version | Text Only | Print | Product List | Glossary On
Versions: 1 2 3 4 5 6 7 8 9 10 11 12 13 14 15 16 17 18 19 20 21 22 23 24 25 26 27 28 29 30 31 32 33 34 35 36 37 38
000
FTUS43 KFSD 302320
TAFSUX
TAF
KSUX 302320Z 3100/3124 14004KT P6SM SKC
     FM310500 14007KT P6SM SKC
     FM311000 15009KT 4SM BR SCT003
     FM311500 19013G19KT P6SM BKN100
     FM312000 19010KT P6SM VCTS BKN030CB BKN120=

USA.gov is the U.S. government's official web portal to all federal, state and local government web resources and services.